sensor_id;sensor_type;location;lat;lon;timestamp;P1;durP1;ratioP1;P2;durP2;ratioP2
72611;SDS011;60655;52.182;4.474;2023-06-22T00:00:13;23.48;;;10.70;;
72611;SDS011;60655;52.182;4.474;2023-06-22T00:02:14;20.33;;;10.65;;
72611;SDS011;60655;52.182;4.474;2023-06-22T00:04:15;20.17;;;10.18;;
72611;SDS011;60655;52.182;4.474;2023-06-22T00:06:16;21.00;;;10.38;;
72611;SDS011;60655;52.182;4.474;2023-06-22T00:08:17;18.77;;;8.70;;
72611;SDS011;60655;52.182;4.474;2023-06-22T00:10:19;16.55;;;8.48;;
72611;SDS011;60655;52.182;4.474;2023-06-22T00:12:20;19.23;;;9.57;;
72611;SDS011;60655;52.182;4.474;2023-06-22T00:14:21;18.90;;;9.68;;
72611;SDS011;60655;52.182;4.474;2023-06-22T00:16:22;20.52;;;9.15;;
72611;SDS011;60655;52.182;4.474;2023-06-22T00:18:23;19.65;;;9.52;;
72611;SDS011;60655;52.182;4.474;2023-06-22T00:20:28;18.25;;;9.50;;
72611;SDS011;60655;52.182;4.474;2023-06-22T00:22:30;20.60;;;10.05;;
72611;SDS011;60655;52.182;4.474;2023-06-22T00:24:31;22.73;;;10.43;;
72611;SDS011;60655;52.182;4.474;2023-06-22T00:26:32;22.25;;;10.55;;
72611;SDS011;60655;52.182;4.474;2023-06-22T00:28:33;22.95;;;11.50;;
72611;SDS011;60655;52.182;4.474;2023-06-22T00:30:34;23.58;;;10.98;;
72611;SDS011;60655;52.182;4.474;2023-06-22T00:32:36;27.55;;;13.25;;
72611;SDS011;60655;52.182;4.474;2023-06-22T00:34:37;22.45;;;12.00;;
72611;SDS011;60655;52.182;4.474;2023-06-22T00:36:38;21.83;;;10.82;;
72611;SDS011;60655;52.182;4.474;2023-06-22T00:38:41;23.92;;;12.15;;
72611;SDS011;60655;52.182;4.474;2023-06-22T00:40:42;29.67;;;15.00;;
72611;SDS011;60655;52.182;4.474;2023-06-22T00:42:43;25.20;;;13.00;;
72611;SDS011;60655;52.182;4.474;2023-06-22T00:44:44;25.77;;;12.73;;
72611;SDS011;60655;52.182;4.474;2023-06-22T00:46:45;25.88;;;11.73;;
72611;SDS011;60655;52.182;4.474;2023-06-22T00:48:46;24.67;;;12.55;;
72611;SDS011;60655;52.182;4.474;2023-06-22T00:50:47;29.05;;;13.10;;
72611;SDS011;60655;52.182;4.474;2023-06-22T00:52:52;25.13;;;12.32;;
72611;SDS011;60655;52.182;4.474;2023-06-22T00:54:56;22.15;;;11.15;;
72611;SDS011;60655;52.182;4.474;2023-06-22T00:56:58;23.52;;;11.90;;
72611;SDS011;60655;52.182;4.474;2023-06-22T00:58:59;24.50;;;12.02;;
72611;SDS011;60655;52.182;4.474;2023-06-22T01:01:03;23.15;;;10.93;;
72611;SDS011;60655;52.182;4.474;2023-06-22T01:03:04;23.33;;;11.70;;
72611;SDS011;60655;52.182;4.474;2023-06-22T01:05:09;21.50;;;10.63;;
72611;SDS011;60655;52.182;4.474;2023-06-22T01:09:19;22.67;;;11.38;;
72611;SDS011;60655;52.182;4.474;2023-06-22T01:11:28;22.08;;;11.55;;
72611;SDS011;60655;52.182;4.474;2023-06-22T01:16:00;26.48;;;12.32;;
72611;SDS011;60655;52.182;4.474;2023-06-22T01:18:17;21.85;;;10.52;;
72611;SDS011;60655;52.182;4.474;2023-06-22T01:20:20;20.67;;;10.65;;
72611;SDS011;60655;52.182;4.474;2023-06-22T01:22:23;24.25;;;11.18;;
72611;SDS011;60655;52.182;4.474;2023-06-22T01:24:27;23.17;;;11.20;;
72611;SDS011;60655;52.182;4.474;2023-06-22T01:29:24;28.33;;;12.77;;
72611;SDS011;60655;52.182;4.474;2023-06-22T01:31:27;25.38;;;11.88;;
72611;SDS011;60655;52.182;4.474;2023-06-22T01:33:31;25.38;;;11.55;;
72611;SDS011;60655;52.182;4.474;2023-06-22T01:35:35;27.60;;;11.63;;
72611;SDS011;60655;52.182;4.474;2023-06-22T01:37:37;24.85;;;11.15;;
72611;SDS011;60655;52.182;4.474;2023-06-22T01:39:39;25.13;;;11.63;;
72611;SDS011;60655;52.182;4.474;2023-06-22T01:41:40;23.58;;;10.68;;
72611;SDS011;60655;52.182;4.474;2023-06-22T01:43:43;27.05;;;12.00;;
72611;SDS011;60655;52.182;4.474;2023-06-22T01:45:46;26.55;;;12.18;;
72611;SDS011;60655;52.182;4.474;2023-06-22T01:47:47;22.92;;;10.98;;
72611;SDS011;60655;52.182;4.474;2023-06-22T01:49:49;22.70;;;11.02;;
72611;SDS011;60655;52.182;4.474;2023-06-22T01:51:52;22.77;;;10.70;;
72611;SDS011;60655;52.182;4.474;2023-06-22T01:53:54;26.08;;;12.50;;
72611;SDS011;60655;52.182;4.474;2023-06-22T01:55:56;26.60;;;12.65;;
72611;SDS011;60655;52.182;4.474;2023-06-22T01:57:58;24.33;;;11.82;;
72611;SDS011;60655;52.182;4.474;2023-06-22T02:00:00;23.63;;;11.30;;
72611;SDS011;60655;52.182;4.474;2023-06-22T02:02:07;22.77;;;11.95;;
72611;SDS011;60655;52.182;4.474;2023-06-22T02:04:13;24.75;;;11.40;;
72611;SDS011;60655;52.182;4.474;2023-06-22T02:06:25;27.33;;;12.52;;
72611;SDS011;60655;52.182;4.474;2023-06-22T02:08:31;27.92;;;13.10;;
72611;SDS011;60655;52.182;4.474;2023-06-22T02:10:38;24.33;;;12.38;;
72611;SDS011;60655;52.182;4.474;2023-06-22T02:12:41;26.20;;;12.05;;
72611;SDS011;60655;52.182;4.474;2023-06-22T02:14:45;25.40;;;12.25;;
72611;SDS011;60655;52.182;4.474;2023-06-22T02:16:50;24.83;;;12.18;;
72611;SDS011;60655;52.182;4.474;2023-06-22T02:18:52;31.40;;;13.13;;
72611;SDS011;60655;52.182;4.474;2023-06-22T02:20:53;30.42;;;14.20;;
72611;SDS011;60655;52.182;4.474;2023-06-22T02:22:54;28.42;;;12.77;;
72611;SDS011;60655;52.182;4.474;2023-06-22T02:24:55;27.48;;;13.63;;
72611;SDS011;60655;52.182;4.474;2023-06-22T02:27:00;28.95;;;13.63;;
72611;SDS011;60655;52.182;4.474;2023-06-22T02:29:02;23.85;;;12.65;;
72611;SDS011;60655;52.182;4.474;2023-06-22T02:31:03;30.58;;;15.23;;
72611;SDS011;60655;52.182;4.474;2023-06-22T02:33:04;26.42;;;13.10;;
72611;SDS011;60655;52.182;4.474;2023-06-22T02:35:05;29.65;;;13.88;;
72611;SDS011;60655;52.182;4.474;2023-06-22T02:37:06;33.65;;;15.18;;
72611;SDS011;60655;52.182;4.474;2023-06-22T02:39:07;35.25;;;17.77;;
72611;SDS011;60655;52.182;4.474;2023-06-22T02:41:08;40.33;;;18.60;;
72611;SDS011;60655;52.182;4.474;2023-06-22T02:43:13;35.33;;;15.23;;
72611;SDS011;60655;52.182;4.474;2023-06-22T02:45:14;41.33;;;17.67;;
72611;SDS011;60655;52.182;4.474;2023-06-22T02:47:15;35.20;;;18.25;;
72611;SDS011;60655;52.182;4.474;2023-06-22T02:49:16;36.20;;;16.65;;
72611;SDS011;60655;52.182;4.474;2023-06-22T02:51:17;35.28;;;17.30;;
72611;SDS011;60655;52.182;4.474;2023-06-22T02:53:18;35.60;;;16.77;;
72611;SDS011;60655;52.182;4.474;2023-06-22T02:55:20;34.70;;;16.00;;
72611;SDS011;60655;52.182;4.474;2023-06-22T02:57:21;36.92;;;16.45;;
72611;SDS011;60655;52.182;4.474;2023-06-22T02:59:21;33.15;;;16.20;;
72611;SDS011;60655;52.182;4.474;2023-06-22T03:01:24;36.13;;;16.90;;
72611;SDS011;60655;52.182;4.474;2023-06-22T03:03:25;37.58;;;18.20;;
72611;SDS011;60655;52.182;4.474;2023-06-22T03:05:26;35.15;;;16.17;;
72611;SDS011;60655;52.182;4.474;2023-06-22T03:07:27;38.67;;;16.50;;
72611;SDS011;60655;52.182;4.474;2023-06-22T03:09:30;35.08;;;16.50;;
72611;SDS011;60655;52.182;4.474;2023-06-22T03:11:32;31.48;;;15.25;;
72611;SDS011;60655;52.182;4.474;2023-06-22T03:13:34;34.25;;;15.20;;
72611;SDS011;60655;52.182;4.474;2023-06-22T03:15:35;34.97;;;16.60;;
72611;SDS011;60655;52.182;4.474;2023-06-22T03:17:36;33.95;;;15.73;;
72611;SDS011;60655;52.182;4.474;2023-06-22T03:19:39;35.90;;;17.10;;
72611;SDS011;60655;52.182;4.474;2023-06-22T03:21:40;33.65;;;16.30;;
72611;SDS011;60655;52.182;4.474;2023-06-22T03:23:41;33.60;;;16.30;;
72611;SDS011;60655;52.182;4.474;2023-06-22T03:25:43;35.53;;;16.40;;
72611;SDS011;60655;52.182;4.474;2023-06-22T03:27:47;32.15;;;14.80;;
72611;SDS011;60655;52.182;4.474;2023-06-22T03:29:48;31.08;;;15.00;;
72611;SDS011;60655;52.182;4.474;2023-06-22T03:31:49;32.20;;;14.55;;
72611;SDS011;60655;52.182;4.474;2023-06-22T03:33:50;31.98;;;15.15;;
72611;SDS011;60655;52.182;4.474;2023-06-22T03:35:51;31.85;;;15.15;;
72611;SDS011;60655;52.182;4.474;2023-06-22T03:37:52;31.80;;;15.23;;
72611;SDS011;60655;52.182;4.474;2023-06-22T03:39:54;33.35;;;15.20;;
72611;SDS011;60655;52.182;4.474;2023-06-22T03:41:55;36.67;;;15.75;;
72611;SDS011;60655;52.182;4.474;2023-06-22T03:43:55;31.58;;;15.73;;
72611;SDS011;60655;52.182;4.474;2023-06-22T03:45:56;27.30;;;14.55;;
72611;SDS011;60655;52.182;4.474;2023-06-22T03:47:57;32.47;;;15.13;;
72611;SDS011;60655;52.182;4.474;2023-06-22T03:49:58;31.77;;;15.07;;
72611;SDS011;60655;52.182;4.474;2023-06-22T03:52:00;32.15;;;15.90;;
72611;SDS011;60655;52.182;4.474;2023-06-22T03:54:05;31.70;;;15.43;;
72611;SDS011;60655;52.182;4.474;2023-06-22T03:56:06;32.70;;;15.48;;
72611;SDS011;60655;52.182;4.474;2023-06-22T03:58:07;33.38;;;15.18;;
72611;SDS011;60655;52.182;4.474;2023-06-22T04:00:10;30.35;;;14.13;;
72611;SDS011;60655;52.182;4.474;2023-06-22T04:02:11;33.33;;;16.02;;
72611;SDS011;60655;52.182;4.474;2023-06-22T04:04:12;32.67;;;15.57;;
72611;SDS011;60655;52.182;4.474;2023-06-22T04:06:13;28.23;;;14.40;;
72611;SDS011;60655;52.182;4.474;2023-06-22T04:08:14;32.50;;;15.05;;
72611;SDS011;60655;52.182;4.474;2023-06-22T04:10:16;31.63;;;14.68;;
72611;SDS011;60655;52.182;4.474;2023-06-22T04:12:17;31.45;;;15.32;;
72611;SDS011;60655;52.182;4.474;2023-06-22T04:14:18;33.90;;;16.02;;
72611;SDS011;60655;52.182;4.474;2023-06-22T04:16:19;32.35;;;14.52;;
72611;SDS011;60655;52.182;4.474;2023-06-22T04:18:20;38.40;;;16.95;;
72611;SDS011;60655;52.182;4.474;2023-06-22T04:20:21;37.03;;;15.80;;
72611;SDS011;60655;52.182;4.474;2023-06-22T04:22:22;32.22;;;15.88;;
72611;SDS011;60655;52.182;4.474;2023-06-22T04:24:23;35.42;;;16.38;;
72611;SDS011;60655;52.182;4.474;2023-06-22T04:26:24;41.38;;;17.95;;
72611;SDS011;60655;52.182;4.474;2023-06-22T04:28:25;38.55;;;17.63;;
72611;SDS011;60655;52.182;4.474;2023-06-22T04:30:26;35.97;;;17.23;;
72611;SDS011;60655;52.182;4.474;2023-06-22T04:32:27;37.63;;;17.55;;
72611;SDS011;60655;52.182;4.474;2023-06-22T04:34:28;37.78;;;18.92;;
72611;SDS011;60655;52.182;4.474;2023-06-22T04:36:29;37.30;;;17.83;;
72611;SDS011;60655;52.182;4.474;2023-06-22T04:38:38;39.30;;;19.45;;
72611;SDS011;60655;52.182;4.474;2023-06-22T04:40:39;39.97;;;18.88;;
72611;SDS011;60655;52.182;4.474;2023-06-22T04:42:40;45.92;;;21.13;;
72611;SDS011;60655;52.182;4.474;2023-06-22T04:44:44;37.30;;;17.42;;
72611;SDS011;60655;52.182;4.474;2023-06-22T04:46:45;44.92;;;20.15;;
72611;SDS011;60655;52.182;4.474;2023-06-22T04:48:46;42.22;;;18.83;;
72611;SDS011;60655;52.182;4.474;2023-06-22T04:50:47;55.35;;;22.80;;
72611;SDS011;60655;52.182;4.474;2023-06-22T04:52:48;39.25;;;17.92;;
72611;SDS011;60655;52.182;4.474;2023-06-22T04:54:49;40.88;;;20.20;;
72611;SDS011;60655;52.182;4.474;2023-06-22T04:56:55;42.40;;;19.33;;
72611;SDS011;60655;52.182;4.474;2023-06-22T04:58:59;36.00;;;16.98;;
72611;SDS011;60655;52.182;4.474;2023-06-22T05:01:00;50.38;;;22.48;;
72611;SDS011;60655;52.182;4.474;2023-06-22T05:03:02;37.58;;;18.63;;
72611;SDS011;60655;52.182;4.474;2023-06-22T05:05:04;38.67;;;18.60;;
72611;SDS011;60655;52.182;4.474;2023-06-22T05:07:07;35.85;;;17.80;;
72611;SDS011;60655;52.182;4.474;2023-06-22T05:09:08;37.97;;;19.45;;
72611;SDS011;60655;52.182;4.474;2023-06-22T05:11:09;42.83;;;20.23;;
72611;SDS011;60655;52.182;4.474;2023-06-22T05:13:10;37.83;;;18.52;;
72611;SDS011;60655;52.182;4.474;2023-06-22T05:15:11;44.60;;;21.42;;
72611;SDS011;60655;52.182;4.474;2023-06-22T05:17:12;38.25;;;19.00;;
72611;SDS011;60655;52.182;4.474;2023-06-22T05:19:14;37.72;;;17.88;;
72611;SDS011;60655;52.182;4.474;2023-06-22T05:21:15;38.25;;;19.42;;
72611;SDS011;60655;52.182;4.474;2023-06-22T05:23:16;38.90;;;18.67;;
72611;SDS011;60655;52.182;4.474;2023-06-22T05:25:17;40.00;;;18.83;;
72611;SDS011;60655;52.182;4.474;2023-06-22T05:27:18;35.20;;;17.27;;
72611;SDS011;60655;52.182;4.474;2023-06-22T05:29:19;40.83;;;20.85;;
72611;SDS011;60655;52.182;4.474;2023-06-22T05:31:22;42.63;;;21.20;;
72611;SDS011;60655;52.182;4.474;2023-06-22T05:33:23;43.20;;;21.05;;
72611;SDS011;60655;52.182;4.474;2023-06-22T05:35:24;36.30;;;17.52;;
72611;SDS011;60655;52.182;4.474;2023-06-22T05:37:25;30.90;;;16.20;;
72611;SDS011;60655;52.182;4.474;2023-06-22T05:39:26;36.28;;;17.77;;
72611;SDS011;60655;52.182;4.474;2023-06-22T05:41:27;29.45;;;15.88;;
72611;SDS011;60655;52.182;4.474;2023-06-22T05:43:28;33.22;;;17.83;;
72611;SDS011;60655;52.182;4.474;2023-06-22T05:45:29;27.15;;;14.82;;
72611;SDS011;60655;52.182;4.474;2023-06-22T05:47:30;42.50;;;20.38;;
72611;SDS011;60655;52.182;4.474;2023-06-22T05:49:31;48.08;;;23.60;;
72611;SDS011;60655;52.182;4.474;2023-06-22T05:51:35;45.58;;;21.85;;
72611;SDS011;60655;52.182;4.474;2023-06-22T05:53:36;37.80;;;18.50;;
72611;SDS011;60655;52.182;4.474;2023-06-22T05:55:37;34.35;;;18.08;;
72611;SDS011;60655;52.182;4.474;2023-06-22T05:57:38;34.60;;;18.33;;
72611;SDS011;60655;52.182;4.474;2023-06-22T05:59:39;33.95;;;18.08;;
72611;SDS011;60655;52.182;4.474;2023-06-22T06:01:40;34.38;;;16.83;;
72611;SDS011;60655;52.182;4.474;2023-06-22T06:03:41;32.50;;;16.50;;
72611;SDS011;60655;52.182;4.474;2023-06-22T06:05:42;42.80;;;20.65;;
72611;SDS011;60655;52.182;4.474;2023-06-22T06:07:45;34.80;;;18.67;;
72611;SDS011;60655;52.182;4.474;2023-06-22T06:09:46;43.42;;;21.25;;
72611;SDS011;60655;52.182;4.474;2023-06-22T06:11:48;42.85;;;20.35;;
72611;SDS011;60655;52.182;4.474;2023-06-22T06:13:49;32.28;;;17.25;;
72611;SDS011;60655;52.182;4.474;2023-06-22T06:15:50;33.70;;;17.95;;
72611;SDS011;60655;52.182;4.474;2023-06-22T06:17:52;36.30;;;18.90;;
72611;SDS011;60655;52.182;4.474;2023-06-22T06:19:53;31.75;;;16.42;;
72611;SDS011;60655;52.182;4.474;2023-06-22T06:21:54;39.97;;;19.88;;
72611;SDS011;60655;52.182;4.474;2023-06-22T06:23:55;33.00;;;18.23;;
72611;SDS011;60655;52.182;4.474;2023-06-22T06:25:56;37.40;;;19.05;;
72611;SDS011;60655;52.182;4.474;2023-06-22T06:27:58;38.20;;;19.40;;
72611;SDS011;60655;52.182;4.474;2023-06-22T06:29:59;33.97;;;17.98;;
72611;SDS011;60655;52.182;4.474;2023-06-22T06:32:00;32.80;;;17.75;;
72611;SDS011;60655;52.182;4.474;2023-06-22T06:34:01;38.33;;;19.13;;
72611;SDS011;60655;52.182;4.474;2023-06-22T06:36:02;35.47;;;18.35;;
72611;SDS011;60655;52.182;4.474;2023-06-22T06:38:04;34.60;;;17.92;;
72611;SDS011;60655;52.182;4.474;2023-06-22T06:40:05;32.53;;;16.95;;
72611;SDS011;60655;52.182;4.474;2023-06-22T06:42:11;31.15;;;16.73;;
72611;SDS011;60655;52.182;4.474;2023-06-22T06:44:12;28.40;;;15.88;;
72611;SDS011;60655;52.182;4.474;2023-06-22T06:46:13;30.55;;;17.00;;
72611;SDS011;60655;52.182;4.474;2023-06-22T06:48:14;31.23;;;16.02;;
72611;SDS011;60655;52.182;4.474;2023-06-22T06:50:15;26.50;;;14.90;;
72611;SDS011;60655;52.182;4.474;2023-06-22T06:52:16;25.58;;;13.68;;
72611;SDS011;60655;52.182;4.474;2023-06-22T06:54:17;24.90;;;14.45;;
72611;SDS011;60655;52.182;4.474;2023-06-22T06:56:21;27.00;;;14.13;;
72611;SDS011;60655;52.182;4.474;2023-06-22T06:58:25;28.77;;;14.82;;
72611;SDS011;60655;52.182;4.474;2023-06-22T07:00:26;30.35;;;13.88;;
72611;SDS011;60655;52.182;4.474;2023-06-22T07:02:27;21.23;;;12.93;;
72611;SDS011;60655;52.182;4.474;2023-06-22T07:04:28;22.92;;;13.73;;
72611;SDS011;60655;52.182;4.474;2023-06-22T07:06:32;20.90;;;11.80;;
72611;SDS011;60655;52.182;4.474;2023-06-22T07:08:34;20.92;;;11.57;;
72611;SDS011;60655;52.182;4.474;2023-06-22T07:10:37;25.10;;;12.23;;
72611;SDS011;60655;52.182;4.474;2023-06-22T07:12:38;21.67;;;12.00;;
72611;SDS011;60655;52.182;4.474;2023-06-22T07:14:39;23.08;;;12.68;;
72611;SDS011;60655;52.182;4.474;2023-06-22T07:16:40;19.25;;;11.70;;
72611;SDS011;60655;52.182;4.474;2023-06-22T07:18:41;21.40;;;11.93;;
72611;SDS011;60655;52.182;4.474;2023-06-22T07:20:42;18.45;;;10.23;;
72611;SDS011;60655;52.182;4.474;2023-06-22T07:22:43;19.30;;;10.32;;
72611;SDS011;60655;52.182;4.474;2023-06-22T07:24:48;18.20;;;9.75;;
72611;SDS011;60655;52.182;4.474;2023-06-22T07:26:50;18.83;;;9.35;;
72611;SDS011;60655;52.182;4.474;2023-06-22T07:28:51;15.93;;;9.38;;
72611;SDS011;60655;52.182;4.474;2023-06-22T07:30:52;17.60;;;8.90;;
72611;SDS011;60655;52.182;4.474;2023-06-22T07:32:53;17.65;;;9.00;;
72611;SDS011;60655;52.182;4.474;2023-06-22T07:34:54;14.35;;;7.80;;
72611;SDS011;60655;52.182;4.474;2023-06-22T07:36:55;14.43;;;7.80;;
72611;SDS011;60655;52.182;4.474;2023-06-22T07:38:56;17.48;;;8.48;;
72611;SDS011;60655;52.182;4.474;2023-06-22T07:40:57;14.32;;;7.07;;
72611;SDS011;60655;52.182;4.474;2023-06-22T07:42:58;14.63;;;7.85;;
72611;SDS011;60655;52.182;4.474;2023-06-22T07:44:59;14.07;;;7.53;;
72611;SDS011;60655;52.182;4.474;2023-06-22T07:47:00;11.52;;;5.93;;
72611;SDS011;60655;52.182;4.474;2023-06-22T07:49:02;10.43;;;5.50;;
72611;SDS011;60655;52.182;4.474;2023-06-22T07:51:03;11.02;;;6.10;;
72611;SDS011;60655;52.182;4.474;2023-06-22T07:53:03;13.10;;;6.68;;
72611;SDS011;60655;52.182;4.474;2023-06-22T07:55:05;11.20;;;6.35;;
72611;SDS011;60655;52.182;4.474;2023-06-22T07:57:06;13.30;;;5.75;;
72611;SDS011;60655;52.182;4.474;2023-06-22T07:59:07;12.30;;;6.53;;
72611;SDS011;60655;52.182;4.474;2023-06-22T08:01:08;9.60;;;5.60;;
72611;SDS011;60655;52.182;4.474;2023-06-22T08:03:09;14.63;;;6.25;;
72611;SDS011;60655;52.182;4.474;2023-06-22T08:05:10;12.75;;;6.10;;
72611;SDS011;60655;52.182;4.474;2023-06-22T08:07:12;11.52;;;5.80;;
72611;SDS011;60655;52.182;4.474;2023-06-22T08:09:13;13.50;;;5.93;;
72611;SDS011;60655;52.182;4.474;2023-06-22T08:11:14;9.32;;;4.47;;
72611;SDS011;60655;52.182;4.474;2023-06-22T08:13:15;9.82;;;4.28;;
72611;SDS011;60655;52.182;4.474;2023-06-22T08:15:16;10.77;;;3.80;;
72611;SDS011;60655;52.182;4.474;2023-06-22T08:17:17;10.05;;;4.00;;
72611;SDS011;60655;52.182;4.474;2023-06-22T08:19:18;8.73;;;5.00;;
72611;SDS011;60655;52.182;4.474;2023-06-22T08:21:19;10.77;;;5.13;;
72611;SDS011;60655;52.182;4.474;2023-06-22T08:23:20;10.07;;;4.72;;
72611;SDS011;60655;52.182;4.474;2023-06-22T08:25:21;12.13;;;5.43;;
72611;SDS011;60655;52.182;4.474;2023-06-22T08:27:22;11.65;;;5.50;;
72611;SDS011;60655;52.182;4.474;2023-06-22T08:29:24;10.50;;;4.93;;
72611;SDS011;60655;52.182;4.474;2023-06-22T08:31:25;10.90;;;4.57;;
72611;SDS011;60655;52.182;4.474;2023-06-22T08:33:26;12.00;;;4.80;;
72611;SDS011;60655;52.182;4.474;2023-06-22T08:35:28;8.73;;;4.13;;
72611;SDS011;60655;52.182;4.474;2023-06-22T08:37:29;11.02;;;4.72;;
72611;SDS011;60655;52.182;4.474;2023-06-22T08:39:35;9.30;;;4.40;;
72611;SDS011;60655;52.182;4.474;2023-06-22T08:41:37;11.10;;;5.38;;
72611;SDS011;60655;52.182;4.474;2023-06-22T08:43:38;14.52;;;5.88;;
72611;SDS011;60655;52.182;4.474;2023-06-22T08:45:39;11.85;;;5.88;;
72611;SDS011;60655;52.182;4.474;2023-06-22T08:47:40;10.73;;;5.40;;
72611;SDS011;60655;52.182;4.474;2023-06-22T08:49:41;13.55;;;6.05;;
72611;SDS011;60655;52.182;4.474;2023-06-22T08:51:42;12.50;;;5.95;;
72611;SDS011;60655;52.182;4.474;2023-06-22T08:53:46;10.98;;;5.30;;
72611;SDS011;60655;52.182;4.474;2023-06-22T08:55:47;12.18;;;5.60;;
72611;SDS011;60655;52.182;4.474;2023-06-22T08:57:48;11.07;;;6.05;;
72611;SDS011;60655;52.182;4.474;2023-06-22T08:59:49;10.55;;;5.68;;
72611;SDS011;60655;52.182;4.474;2023-06-22T09:01:52;10.88;;;6.03;;
72611;SDS011;60655;52.182;4.474;2023-06-22T09:03:53;11.23;;;5.45;;
72611;SDS011;60655;52.182;4.474;2023-06-22T09:05:58;10.77;;;5.78;;
72611;SDS011;60655;52.182;4.474;2023-06-22T09:07:59;11.48;;;5.20;;
72611;SDS011;60655;52.182;4.474;2023-06-22T09:10:00;12.63;;;6.55;;
72611;SDS011;60655;52.182;4.474;2023-06-22T09:12:01;11.50;;;5.93;;
72611;SDS011;60655;52.182;4.474;2023-06-22T09:14:02;13.32;;;5.95;;
72611;SDS011;60655;52.182;4.474;2023-06-22T09:16:04;12.93;;;6.18;;
72611;SDS011;60655;52.182;4.474;2023-06-22T09:18:05;12.70;;;6.57;;
72611;SDS011;60655;52.182;4.474;2023-06-22T09:20:06;13.30;;;6.43;;
72611;SDS011;60655;52.182;4.474;2023-06-22T09:22:10;14.95;;;6.88;;
72611;SDS011;60655;52.182;4.474;2023-06-22T09:24:11;17.80;;;8.18;;
72611;SDS011;60655;52.182;4.474;2023-06-22T09:26:12;13.15;;;7.70;;
72611;SDS011;60655;52.182;4.474;2023-06-22T09:28:13;12.32;;;6.80;;
72611;SDS011;60655;52.182;4.474;2023-06-22T09:30:15;15.50;;;8.38;;
72611;SDS011;60655;52.182;4.474;2023-06-22T09:32:19;12.40;;;7.60;;
72611;SDS011;60655;52.182;4.474;2023-06-22T09:34:20;18.48;;;8.30;;
72611;SDS011;60655;52.182;4.474;2023-06-22T09:36:21;16.92;;;8.48;;
72611;SDS011;60655;52.182;4.474;2023-06-22T09:38:22;15.48;;;9.10;;
72611;SDS011;60655;52.182;4.474;2023-06-22T09:40:23;13.88;;;8.10;;
72611;SDS011;60655;52.182;4.474;2023-06-22T09:42:24;15.32;;;7.95;;
72611;SDS011;60655;52.182;4.474;2023-06-22T09:44:25;14.70;;;8.90;;
72611;SDS011;60655;52.182;4.474;2023-06-22T09:46:26;14.80;;;8.65;;
72611;SDS011;60655;52.182;4.474;2023-06-22T09:48:28;14.60;;;7.95;;
72611;SDS011;60655;52.182;4.474;2023-06-22T09:50:30;13.77;;;7.20;;
72611;SDS011;60655;52.182;4.474;2023-06-22T09:52:31;12.35;;;7.05;;
72611;SDS011;60655;52.182;4.474;2023-06-22T09:54:32;11.68;;;5.72;;
72611;SDS011;60655;52.182;4.474;2023-06-22T09:56:33;11.85;;;6.40;;
72611;SDS011;60655;52.182;4.474;2023-06-22T09:58:37;10.82;;;5.30;;
72611;SDS011;60655;52.182;4.474;2023-06-22T10:00:38;11.95;;;5.75;;
72611;SDS011;60655;52.182;4.474;2023-06-22T10:02:40;11.93;;;6.47;;
72611;SDS011;60655;52.182;4.474;2023-06-22T10:04:42;13.00;;;7.70;;
72611;SDS011;60655;52.182;4.474;2023-06-22T10:06:43;12.45;;;6.68;;
72611;SDS011;60655;52.182;4.474;2023-06-22T10:08:44;12.77;;;6.30;;
72611;SDS011;60655;52.182;4.474;2023-06-22T10:10:45;10.88;;;6.43;;
72611;SDS011;60655;52.182;4.474;2023-06-22T10:12:48;10.55;;;5.90;;
72611;SDS011;60655;52.182;4.474;2023-06-22T10:14:56;11.20;;;5.63;;
72611;SDS011;60655;52.182;4.474;2023-06-22T10:17:02;12.45;;;6.07;;
72611;SDS011;60655;52.182;4.474;2023-06-22T10:19:03;10.15;;;6.07;;
72611;SDS011;60655;52.182;4.474;2023-06-22T10:21:04;11.35;;;6.82;;
72611;SDS011;60655;52.182;4.474;2023-06-22T10:23:05;12.45;;;7.30;;
72611;SDS011;60655;52.182;4.474;2023-06-22T10:25:06;12.10;;;7.03;;
72611;SDS011;60655;52.182;4.474;2023-06-22T10:27:07;11.23;;;6.30;;
72611;SDS011;60655;52.182;4.474;2023-06-22T10:29:08;10.48;;;6.35;;
72611;SDS011;60655;52.182;4.474;2023-06-22T10:31:09;12.77;;;7.00;;
72611;SDS011;60655;52.182;4.474;2023-06-22T10:33:11;11.38;;;6.00;;
72611;SDS011;60655;52.182;4.474;2023-06-22T10:35:12;13.68;;;5.43;;
72611;SDS011;60655;52.182;4.474;2023-06-22T10:37:16;9.35;;;4.80;;
72611;SDS011;60655;52.182;4.474;2023-06-22T10:39:17;11.40;;;5.15;;
72611;SDS011;60655;52.182;4.474;2023-06-22T10:41:18;10.52;;;6.45;;
72611;SDS011;60655;52.182;4.474;2023-06-22T10:43:19;11.68;;;6.68;;
72611;SDS011;60655;52.182;4.474;2023-06-22T10:45:20;13.52;;;6.97;;
72611;SDS011;60655;52.182;4.474;2023-06-22T10:47:21;14.75;;;7.13;;
72611;SDS011;60655;52.182;4.474;2023-06-22T10:49:22;13.43;;;7.32;;
72611;SDS011;60655;52.182;4.474;2023-06-22T10:51:23;12.85;;;6.43;;
72611;SDS011;60655;52.182;4.474;2023-06-22T10:53:24;13.90;;;7.20;;
72611;SDS011;60655;52.182;4.474;2023-06-22T10:55:25;15.23;;;7.40;;
72611;SDS011;60655;52.182;4.474;2023-06-22T10:57:26;12.70;;;7.00;;
72611;SDS011;60655;52.182;4.474;2023-06-22T10:59:35;14.57;;;6.72;;
72611;SDS011;60655;52.182;4.474;2023-06-22T11:01:36;11.70;;;6.55;;
72611;SDS011;60655;52.182;4.474;2023-06-22T11:03:37;15.00;;;8.32;;
72611;SDS011;60655;52.182;4.474;2023-06-22T11:05:38;13.68;;;7.43;;
72611;SDS011;60655;52.182;4.474;2023-06-22T11:07:42;12.05;;;6.30;;
72611;SDS011;60655;52.182;4.474;2023-06-22T11:09:44;12.00;;;6.72;;
72611;SDS011;60655;52.182;4.474;2023-06-22T11:11:47;14.88;;;6.82;;
72611;SDS011;60655;52.182;4.474;2023-06-22T11:13:50;12.93;;;8.00;;
72611;SDS011;60655;52.182;4.474;2023-06-22T11:15:50;17.38;;;10.18;;
72611;SDS011;60655;52.182;4.474;2023-06-22T11:17:51;16.33;;;9.98;;
72611;SDS011;60655;52.182;4.474;2023-06-22T11:19:52;16.77;;;9.70;;
72611;SDS011;60655;52.182;4.474;2023-06-22T11:21:53;20.13;;;11.32;;
72611;SDS011;60655;52.182;4.474;2023-06-22T11:23:54;16.98;;;9.85;;
72611;SDS011;60655;52.182;4.474;2023-06-22T11:25:55;16.70;;;8.80;;
72611;SDS011;60655;52.182;4.474;2023-06-22T11:27:56;13.50;;;7.13;;
72611;SDS011;60655;52.182;4.474;2023-06-22T11:29:57;12.60;;;7.20;;
72611;SDS011;60655;52.182;4.474;2023-06-22T11:31:58;17.00;;;7.60;;
72611;SDS011;60655;52.182;4.474;2023-06-22T11:33:59;12.00;;;6.53;;
72611;SDS011;60655;52.182;4.474;2023-06-22T11:36:00;15.10;;;7.20;;
72611;SDS011;60655;52.182;4.474;2023-06-22T11:38:01;15.18;;;7.88;;
72611;SDS011;60655;52.182;4.474;2023-06-22T11:40:04;16.20;;;8.25;;
72611;SDS011;60655;52.182;4.474;2023-06-22T11:42:06;18.15;;;9.40;;
72611;SDS011;60655;52.182;4.474;2023-06-22T11:44:07;14.63;;;8.38;;
72611;SDS011;60655;52.182;4.474;2023-06-22T11:46:08;15.52;;;8.35;;
72611;SDS011;60655;52.182;4.474;2023-06-22T11:48:09;13.75;;;8.02;;
72611;SDS011;60655;52.182;4.474;2023-06-22T11:50:10;23.30;;;8.35;;
72611;SDS011;60655;52.182;4.474;2023-06-22T11:52:11;21.83;;;8.10;;
72611;SDS011;60655;52.182;4.474;2023-06-22T11:54:12;16.13;;;7.35;;
72611;SDS011;60655;52.182;4.474;2023-06-22T11:56:13;16.60;;;7.05;;
72611;SDS011;60655;52.182;4.474;2023-06-22T11:58:14;14.88;;;7.50;;
72611;SDS011;60655;52.182;4.474;2023-06-22T12:00:15;17.60;;;7.65;;
72611;SDS011;60655;52.182;4.474;2023-06-22T12:02:18;13.98;;;7.68;;